createdAt,value
2022-10-01T00:03:07.955Z,8.39
2022-10-01T00:07:01.891Z,8.24
2022-10-01T00:10:49.408Z,8.26
2022-10-01T00:14:29.606Z,8.27
2022-10-01T00:17:56.621Z,8.23
2022-10-01T00:21:29.273Z,8.10
2022-10-01T00:25:10.672Z,8.01
2022-10-01T00:28:48.252Z,7.95
2022-10-01T00:32:35.685Z,7.73
2022-10-01T00:36:23.263Z,7.69
2022-10-01T00:40:11.168Z,7.73
2022-10-01T00:43:59.167Z,7.88
2022-10-01T00:47:52.635Z,7.99
2022-10-01T00:51:39.499Z,7.88
2022-10-01T00:55:30.313Z,7.76
2022-10-01T00:59:18.472Z,7.64
2022-10-01T01:03:04.726Z,7.65
2022-10-01T01:06:52.459Z,7.50
2022-10-01T01:10:38.851Z,7.47
2022-10-01T01:14:41.474Z,7.51
2022-10-01T01:18:50.664Z,7.54
2022-10-01T01:22:41.396Z,7.46
2022-10-01T01:26:29.242Z,7.30
2022-10-01T01:30:28.786Z,7.31
2022-10-01T01:34:16.870Z,7.29
2022-10-01T01:38:04.573Z,7.15
2022-10-01T01:41:52.084Z,7.15
2022-10-01T01:45:26.479Z,7.20
2022-10-01T01:49:14.535Z,7.21
2022-10-01T01:53:04.939Z,7.19
2022-10-01T01:56:52.936Z,7.23
2022-10-01T02:00:42.299Z,7.27
2022-10-01T02:04:20.334Z,7.19
2022-10-01T02:08:13.556Z,7.16
2022-10-01T02:12:13.938Z,7.07
2022-10-01T02:16:04.832Z,7.00
2022-10-01T02:19:45.338Z,7.00
2022-10-01T02:23:16.389Z,7.14
2022-10-01T02:26:54.504Z,7.26
2022-10-01T02:30:42.121Z,7.33
2022-10-01T02:34:20.541Z,7.14
2022-10-01T02:38:08.109Z,7.02
2022-10-01T02:41:56.161Z,6.94
2022-10-01T02:45:43.918Z,6.87
2022-10-01T02:49:32.569Z,6.80
2022-10-01T02:53:22.920Z,6.85
2022-10-01T02:57:09.458Z,6.97
2022-10-01T03:00:57.205Z,7.06
2022-10-01T03:04:45.183Z,7.02
2022-10-01T03:08:32.850Z,6.97
2022-10-01T03:12:20.444Z,6.85
2022-10-01T03:16:08.418Z,6.89
2022-10-01T03:19:55.060Z,6.88
2022-10-01T03:23:42.872Z,6.84
2022-10-01T03:27:30.635Z,6.74
2022-10-01T03:31:18.204Z,6.71
2022-10-01T03:35:05.754Z,6.63
2022-10-01T03:38:53.017Z,6.56
2022-10-01T03:42:33.488Z,6.64
2022-10-01T03:46:04.041Z,6.67
2022-10-01T03:49:51.703Z,6.56
2022-10-01T03:53:28.237Z,6.50
2022-10-01T03:57:16.114Z,6.46
2022-10-01T04:01:03.737Z,6.45
2022-10-01T04:04:51.154Z,6.36
2022-10-01T04:08:39.024Z,6.23
2022-10-01T04:12:13.992Z,6.21
2022-10-01T04:16:02.661Z,6.34
2022-10-01T04:19:50.776Z,6.25
2022-10-01T04:23:38.810Z,6.22
2022-10-01T04:27:26.824Z,6.09
2022-10-01T04:31:14.651Z,5.93
2022-10-01T04:35:14.634Z,5.90
2022-10-01T04:39:05.449Z,6.24
2022-10-01T04:42:53.966Z,6.20
2022-10-01T04:46:43.761Z,6.24
2022-10-01T04:50:27.767Z,6.35
2022-10-01T04:54:31.317Z,6.30
2022-10-01T04:57:54.788Z,6.19
2022-10-01T05:01:09.350Z,6.13
2022-10-01T05:05:00.722Z,6.09
2022-10-01T05:08:33.663Z,6.11
2022-10-01T05:12:24.546Z,6.30
2022-10-01T05:16:12.517Z,6.32
2022-10-01T05:19:45.946Z,6.46
2022-10-01T05:23:34.680Z,6.55
2022-10-01T05:27:22.234Z,6.54
2022-10-01T05:31:10.921Z,6.63
2022-10-01T05:34:59.686Z,6.79
2022-10-01T05:38:47.246Z,6.87
2022-10-01T05:42:34.862Z,7.07
2022-10-01T05:46:27.940Z,7.23
2022-10-01T05:50:16.868Z,7.33
2022-10-01T05:54:04.850Z,7.42
2022-10-01T05:57:59.078Z,7.73
2022-10-01T06:02:12.878Z,8.00
2022-10-01T06:05:47.544Z,8.11
2022-10-01T06:09:35.773Z,8.33
2022-10-01T06:13:23.415Z,8.59
2022-10-01T06:17:11.546Z,8.64
2022-10-01T06:20:59.737Z,8.74
2022-10-01T06:24:47.907Z,8.99
2022-10-01T06:28:34.897Z,9.15
2022-10-01T06:32:19.937Z,9.32
2022-10-01T06:36:08.962Z,9.54
2022-10-01T06:39:56.734Z,9.65
2022-10-01T06:43:48.539Z,9.79
2022-10-01T06:47:36.279Z,9.88
2022-10-01T06:51:27.657Z,10.04
2022-10-01T06:55:16.751Z,10.25
2022-10-01T06:59:10.457Z,10.34
2022-10-01T07:03:01.854Z,10.57
2022-10-01T07:06:49.541Z,10.89
2022-10-01T07:10:39.980Z,11.30
2022-10-01T07:14:29.759Z,11.65
2022-10-01T07:18:18.555Z,12.13
2022-10-01T07:22:06.048Z,12.47
2022-10-01T07:25:56.155Z,12.80
2022-10-01T07:29:35.114Z,13.23
2022-10-01T07:33:23.073Z,13.59
2022-10-01T07:37:13.484Z,14.06
2022-10-01T07:41:01.701Z,14.10
2022-10-01T07:44:32.223Z,14.56
2022-10-01T07:48:20.234Z,15.02
2022-10-01T07:52:13.022Z,15.06
2022-10-01T07:55:51.904Z,15.50
2022-10-01T07:59:40.295Z,15.69
2022-10-01T08:03:29.036Z,16.13
2022-10-01T08:07:17.416Z,16.34
2022-10-01T08:11:05.214Z,16.21
2022-10-01T08:14:53.200Z,16.48
2022-10-01T08:18:41.631Z,16.58
2022-10-01T08:22:29.181Z,16.75
2022-10-01T08:26:32.119Z,16.77
2022-10-01T08:30:19.620Z,16.79
2022-10-01T08:33:48.111Z,16.47
2022-10-01T08:37:35.785Z,16.48
2022-10-01T08:41:27.537Z,16.81
2022-10-01T08:45:21.385Z,17.00
2022-10-01T08:49:17.894Z,17.24
2022-10-01T08:53:10.576Z,17.27
2022-10-01T08:56:33.014Z,17.31
2022-10-01T09:00:25.199Z,17.52
2022-10-01T09:04:12.886Z,17.88
2022-10-01T09:08:01.057Z,18.29
2022-10-01T09:11:57.692Z,18.69
2022-10-01T09:16:06.263Z,18.92
2022-10-01T09:19:59.761Z,19.21
2022-10-01T09:23:45.677Z,19.36
2022-10-01T09:27:35.025Z,19.73
2022-10-01T09:31:22.972Z,20.00
2022-10-01T09:35:14.044Z,20.14
2022-10-01T09:39:19.159Z,20.05
2022-10-01T09:43:07.815Z,20.00
2022-10-01T09:46:56.095Z,20.01
2022-10-01T09:50:44.020Z,20.18
2022-10-01T09:57:22.511Z,20.29
2022-10-01T10:01:25.107Z,19.99
2022-10-01T10:05:14.784Z,20.01
2022-10-01T10:09:16.984Z,20.30
2022-10-01T10:13:09.704Z,20.41
2022-10-01T10:17:06.226Z,20.75
2022-10-01T10:20:59.004Z,20.50
2022-10-01T10:24:49.060Z,20.40
2022-10-01T10:28:42.152Z,20.19
2022-10-01T10:32:36.868Z,20.13
2022-10-01T10:36:26.679Z,20.21
2022-10-01T10:40:16.446Z,20.20
2022-10-01T10:44:06.134Z,19.97
2022-10-01T10:47:55.964Z,20.08
2022-10-01T10:51:45.454Z,20.02
2022-10-01T10:55:35.986Z,19.81
2022-10-01T10:59:25.818Z,19.62
2022-10-01T11:03:15.221Z,19.48
2022-10-01T11:07:11.241Z,19.75
2022-10-01T11:11:02.572Z,19.72
2022-10-01T11:14:52.115Z,19.95
2022-10-01T11:18:47.178Z,19.65
2022-10-01T11:22:33.716Z,20.04
2022-10-01T11:26:41.176Z,19.87
2022-10-01T11:30:30.735Z,19.99
2022-10-01T11:34:29.981Z,20.14
2022-10-01T11:38:31.240Z,20.01
2022-10-01T11:42:29.691Z,19.94
2022-10-01T11:46:19.416Z,20.14
2022-10-01T11:50:19.612Z,20.26
2022-10-01T11:54:11.952Z,20.22
2022-10-01T11:58:14.021Z,20.26
2022-10-01T12:02:09.567Z,20.11
2022-10-01T12:05:59.377Z,20.34
2022-10-01T12:09:58.949Z,20.41
2022-10-01T12:13:57.677Z,20.48
2022-10-01T12:17:49.929Z,20.62
2022-10-01T12:21:41.847Z,20.59
2022-10-01T12:25:30.924Z,20.72
2022-10-01T12:29:21.016Z,20.34
2022-10-01T12:33:22.176Z,20.24
2022-10-01T12:37:24.576Z,19.99
2022-10-01T12:41:17.425Z,19.81
2022-10-01T12:45:17.707Z,19.90
2022-10-01T12:49:13.674Z,19.68
2022-10-01T12:53:15.669Z,19.69
2022-10-01T12:56:59.837Z,19.56
2022-10-01T13:01:01.992Z,19.69
2022-10-01T13:04:52.782Z,19.58
2022-10-01T13:08:46.350Z,19.68
2022-10-01T13:12:51.031Z,19.67
2022-10-01T13:16:53.298Z,19.84
2022-10-01T13:20:49.591Z,20.13
2022-10-01T13:24:50.357Z,19.87
2022-10-01T13:28:40.128Z,19.94
2022-10-01T13:32:32.754Z,19.67
2022-10-01T13:36:34.132Z,19.69
2022-10-01T13:40:26.905Z,19.65
2022-10-01T13:44:17.239Z,19.45
2022-10-01T13:48:08.445Z,19.42
2022-10-01T13:51:58.447Z,19.26
2022-10-01T13:55:48.217Z,19.14
2022-10-01T13:59:37.848Z,18.57
2022-10-01T14:03:43.061Z,18.50
2022-10-01T14:07:35.963Z,18.30
2022-10-01T14:11:24.094Z,18.45
2022-10-01T14:15:14.876Z,18.18
2022-10-01T14:19:05.546Z,17.01
2022-10-01T14:23:04.389Z,15.75
2022-10-01T14:26:52.783Z,15.31
2022-10-01T14:30:48.107Z,15.12
2022-10-01T14:42:41.118Z,15.05
2022-10-01T15:02:59.242Z,15.34
2022-10-01T15:10:29.199Z,14.95
2022-10-01T15:14:23.113Z,14.96
2022-10-01T15:18:18.173Z,14.80
2022-10-01T15:22:18.187Z,14.60
2022-10-01T15:26:13.026Z,14.62
2022-10-01T15:30:06.006Z,14.54
2022-10-01T15:33:12.344Z,14.66
2022-10-01T15:37:12.175Z,14.60
2022-10-01T15:41:26.761Z,14.46
2022-10-01T15:52:06.566Z,14.27
2022-10-01T15:55:57.725Z,14.22
2022-10-01T15:59:53.834Z,14.07
2022-10-01T16:03:45.820Z,14.04
2022-10-01T16:07:35.853Z,14.01
2022-10-01T16:11:29.073Z,13.99
2022-10-01T16:15:22.438Z,13.91
2022-10-01T16:19:12.134Z,13.90
2022-10-01T16:23:20.654Z,13.87
2022-10-01T16:27:28.793Z,13.83
2022-10-01T16:31:21.943Z,13.83
2022-10-01T16:35:12.076Z,13.73
2022-10-01T16:39:02.288Z,13.78
2022-10-01T16:42:59.209Z,13.77
2022-10-01T16:46:49.328Z,13.84
2022-10-01T16:50:39.574Z,13.81
2022-10-01T16:54:29.691Z,13.78
2022-10-01T16:58:19.325Z,13.77
2022-10-01T17:02:09.792Z,13.79
2022-10-01T17:05:59.342Z,13.81
2022-10-01T17:09:49.111Z,13.72
2022-10-01T17:13:38.685Z,13.74
2022-10-01T17:17:29.605Z,13.61
2022-10-01T17:21:20.298Z,13.70
2022-10-01T17:25:12.021Z,13.60
2022-10-01T17:29:03.516Z,13.65
2022-10-01T17:32:53.136Z,13.70
2022-10-01T17:36:43.095Z,13.77
2022-10-01T17:40:36.300Z,13.81
2022-10-01T17:44:27.013Z,13.87
2022-10-01T17:48:21.624Z,13.77
2022-10-01T17:52:16.592Z,13.75
2022-10-01T17:56:06.947Z,13.77
2022-10-01T17:59:57.128Z,13.71
2022-10-01T18:03:47.405Z,13.71
2022-10-01T18:07:42.741Z,13.59
2022-10-01T18:11:46.085Z,13.65
2022-10-01T18:15:36.770Z,13.55
2022-10-01T18:23:35.730Z,13.51
2022-10-01T18:27:25.163Z,13.57
2022-10-01T18:31:15.847Z,13.54
2022-10-01T18:35:05.818Z,13.63
2022-10-01T18:39:02.572Z,13.55
2022-10-01T18:43:00.562Z,13.54
2022-10-01T18:46:52.052Z,13.60
2022-10-01T18:50:48.236Z,13.56
2022-10-01T18:54:36.549Z,13.60
2022-10-01T18:58:26.400Z,13.67
2022-10-01T19:02:14.185Z,13.56
2022-10-01T19:06:09.844Z,13.64
2022-10-01T19:10:20.352Z,13.71
2022-10-01T19:14:09.973Z,13.69
2022-10-01T19:17:58.090Z,13.69
2022-10-01T19:21:55.868Z,13.70
2022-10-01T19:25:54.451Z,13.76
2022-10-01T19:29:53.125Z,13.71
2022-10-01T19:33:51.704Z,13.78
2022-10-01T19:37:44.019Z,13.76
2022-10-01T19:41:39.614Z,13.82
2022-10-01T19:45:41.200Z,13.83
2022-10-01T19:49:35.244Z,13.87
2022-10-01T19:53:25.037Z,13.84
2022-10-01T19:57:14.384Z,13.82
2022-10-01T20:01:04.996Z,13.75
2022-10-01T20:04:55.575Z,13.79
2022-10-01T20:09:00.751Z,13.88
2022-10-01T20:12:49.952Z,13.81
2022-10-01T20:16:40.024Z,13.95
2022-10-01T20:20:35.108Z,13.90
2022-10-01T20:24:34.692Z,13.90
2022-10-01T20:28:25.639Z,13.91
2022-10-01T20:32:21.335Z,13.93
2022-10-01T20:36:10.871Z,13.96
2022-10-01T20:40:00.107Z,13.81
2022-10-01T20:43:50.964Z,13.83
2022-10-01T20:47:43.072Z,13.87
2022-10-01T20:51:33.096Z,13.80
2022-10-01T20:55:22.786Z,13.91
2022-10-01T20:59:24.984Z,13.85
2022-10-01T21:03:15.527Z,13.91
2022-10-01T21:07:23.473Z,13.88
2022-10-01T21:11:31.256Z,13.85
2022-10-01T21:15:20.689Z,14.01
2022-10-01T21:19:13.248Z,13.99
2022-10-01T21:23:14.394Z,13.90
2022-10-01T21:27:15.634Z,13.87
2022-10-01T21:31:16.827Z,13.72
2022-10-01T21:35:10.353Z,13.76
2022-10-01T21:39:05.635Z,13.81
2022-10-01T21:42:57.719Z,13.84
2022-10-01T21:46:32.835Z,13.87
2022-10-01T21:50:28.032Z,13.92
2022-10-01T21:54:06.773Z,13.85
2022-10-01T21:58:19.965Z,13.84
2022-10-01T22:01:52.778Z,14.01
2022-10-01T22:06:03.433Z,13.91
2022-10-01T22:09:14.618Z,13.89
2022-10-01T22:12:46.508Z,13.87
2022-10-01T22:41:25.266Z,14.23
2022-10-01T22:45:13.318Z,14.06
2022-10-01T22:49:16.115Z,13.97
2022-10-01T22:53:20.197Z,13.94
2022-10-01T22:57:07.715Z,13.86
2022-10-01T23:00:56.279Z,13.87
2022-10-01T23:05:08.292Z,13.81
2022-10-01T23:09:17.770Z,13.72
2022-10-01T23:12:58.359Z,13.78
2022-10-01T23:16:43.323Z,13.81
2022-10-01T23:20:58.060Z,13.67
2022-10-01T23:24:46.821Z,13.54
2022-10-01T23:28:47.694Z,13.57
2022-10-01T23:32:38.112Z,13.58
2022-10-01T23:36:50.269Z,13.63
2022-10-01T23:40:43.860Z,13.63
2022-10-01T23:44:31.308Z,13.75
2022-10-01T23:48:24.655Z,13.82
2022-10-01T23:52:39.365Z,13.86
2022-10-01T23:56:28.069Z,13.87
